createdAt,value
2017-12-12T00:00:09.946Z,25.00
2017-12-12T00:01:09.932Z,25.40
2017-12-12T00:02:09.919Z,27.50
2017-12-12T00:03:09.909Z,25.40
2017-12-12T00:04:09.899Z,26.00
2017-12-12T00:05:09.887Z,27.30
2017-12-12T00:06:09.877Z,26.10
2017-12-12T00:07:09.867Z,26.50
2017-12-12T00:08:09.856Z,27.30
2017-12-12T00:09:09.849Z,28.50
2017-12-12T00:10:09.840Z,26.90
2017-12-12T00:11:09.829Z,28.00
2017-12-12T00:12:09.818Z,27.90
2017-12-12T00:13:09.803Z,25.90
2017-12-12T00:14:09.793Z,27.60
2017-12-12T00:15:09.784Z,28.10
2017-12-12T00:16:09.773Z,27.00
2017-12-12T00:17:09.768Z,27.80
2017-12-12T00:18:09.755Z,28.20
2017-12-12T00:19:09.746Z,29.80
2017-12-12T00:20:09.734Z,27.80
2017-12-12T00:21:09.745Z,27.00
2017-12-12T00:22:09.714Z,28.50
2017-12-12T00:23:09.703Z,27.40
2017-12-12T00:24:09.691Z,24.90
2017-12-12T00:25:09.677Z,27.20
2017-12-12T00:26:09.667Z,28.00
2017-12-12T00:27:09.656Z,27.20
2017-12-12T00:28:09.647Z,27.90
2017-12-12T00:29:09.636Z,27.20
2017-12-12T00:30:09.625Z,27.30
2017-12-12T00:31:09.615Z,26.90
2017-12-12T00:32:09.602Z,26.70
2017-12-12T00:33:09.601Z,27.60
2017-12-12T00:34:09.587Z,26.40
2017-12-12T00:35:09.577Z,25.70
2017-12-12T00:36:09.565Z,26.00
2017-12-12T00:37:09.555Z,25.30
2017-12-12T00:38:09.544Z,22.80
2017-12-12T00:39:09.534Z,16.20
2017-12-12T00:40:09.523Z,20.20
2017-12-12T00:41:09.508Z,21.40
2017-12-12T00:42:09.498Z,22.30
2017-12-12T00:43:09.487Z,21.80
2017-12-12T00:44:09.476Z,20.70
2017-12-12T00:45:09.466Z,20.30
2017-12-12T00:46:09.455Z,20.10
2017-12-12T00:47:09.445Z,22.50
2017-12-12T00:48:09.434Z,22.20
2017-12-12T00:49:09.427Z,20.90
2017-12-12T00:50:09.416Z,20.50
2017-12-12T00:51:09.406Z,5.90
2017-12-12T00:52:09.395Z,9.70
2017-12-12T00:53:09.383Z,22.20
2017-12-12T00:54:09.372Z,15.00
2017-12-12T00:55:09.363Z,1.10
2017-12-12T00:56:09.351Z,13.80
2017-12-12T00:57:09.337Z,10.60
2017-12-12T00:58:09.326Z,14.70
2017-12-12T00:59:09.315Z,23.60
2017-12-12T01:00:09.305Z,19.70
2017-12-12T01:01:09.293Z,3.50
2017-12-12T01:02:09.282Z,1.20
2017-12-12T01:03:09.271Z,13.30
2017-12-12T01:04:09.266Z,19.40
2017-12-12T01:05:09.255Z,21.70
2017-12-12T01:06:09.242Z,17.30
2017-12-12T01:07:09.232Z,10.90
2017-12-12T01:08:09.220Z,6.90
2017-12-12T01:09:09.210Z,24.60
2017-12-12T01:10:09.198Z,18.40
2017-12-12T01:11:09.189Z,8.00
2017-12-12T01:12:09.177Z,9.10
2017-12-12T01:13:09.162Z,6.50
2017-12-12T01:14:09.150Z,5.70
2017-12-12T01:15:09.139Z,12.80
2017-12-12T01:16:09.127Z,18.10
2017-12-12T01:17:09.122Z,20.00
2017-12-12T01:18:09.109Z,23.80
2017-12-12T01:19:09.099Z,24.30
2017-12-12T01:20:09.087Z,22.30
2017-12-12T01:21:09.072Z,19.40
2017-12-12T01:22:09.061Z,20.80
2017-12-12T01:23:09.051Z,22.10
2017-12-12T01:24:09.039Z,22.80
2017-12-12T01:25:09.028Z,5.30
2017-12-12T01:26:09.017Z,8.50
2017-12-12T01:27:09.006Z,8.20
2017-12-12T01:28:08.995Z,5.90
2017-12-12T01:29:08.988Z,2.70
2017-12-12T01:30:08.978Z,8.70
2017-12-12T01:31:08.966Z,20.40
2017-12-12T01:32:08.954Z,20.90
2017-12-12T01:33:08.943Z,18.10
2017-12-12T01:34:08.933Z,18.00
2017-12-12T01:35:08.923Z,9.00
2017-12-12T01:36:08.909Z,6.60
2017-12-12T01:37:08.895Z,2.50
2017-12-12T01:38:08.884Z,14.50
2017-12-12T01:39:08.873Z,10.30
2017-12-12T01:40:08.861Z,14.90
2017-12-12T01:41:08.851Z,18.10
2017-12-12T01:42:08.838Z,15.60
2017-12-12T01:43:08.828Z,16.40
2017-12-12T01:44:08.817Z,14.50
2017-12-12T01:45:08.809Z,16.40
2017-12-12T01:46:08.798Z,19.20
2017-12-12T01:47:08.789Z,21.20
2017-12-12T01:48:08.776Z,21.60
2017-12-12T01:49:08.766Z,21.60
2017-12-12T01:50:08.755Z,20.50
2017-12-12T01:51:08.745Z,20.80
2017-12-12T01:52:08.732Z,20.70
2017-12-12T01:53:08.716Z,19.00
2017-12-12T01:54:08.710Z,19.10
2017-12-12T01:55:08.696Z,15.60
2017-12-12T01:56:08.684Z,7.00
2017-12-12T01:57:08.673Z,5.00
2017-12-12T01:58:08.662Z,5.20
2017-12-12T01:59:08.652Z,18.40
2017-12-12T02:00:08.640Z,19.50
2017-12-12T02:01:08.632Z,20.40
2017-12-12T02:02:08.622Z,10.70
2017-12-12T02:03:08.615Z,7.00
2017-12-12T02:04:08.599Z,13.90
2017-12-12T02:05:08.590Z,9.90
2017-12-12T02:06:08.577Z,1.30
2017-12-12T02:07:08.567Z,0.40
2017-12-12T02:08:08.554Z,0.70
2017-12-12T02:09:08.541Z,4.40
2017-12-12T02:10:08.529Z,5.40
2017-12-12T02:11:08.517Z,7.60
2017-12-12T02:12:08.506Z,5.20
2017-12-12T02:13:08.495Z,4.50
2017-12-12T02:14:08.485Z,8.60
2017-12-12T02:15:08.473Z,0.80
2017-12-12T02:16:08.461Z,3.00
2017-12-12T02:17:08.455Z,10.10
2017-12-12T02:18:08.443Z,16.40
2017-12-12T02:19:08.433Z,12.50
2017-12-12T02:20:08.420Z,9.80
2017-12-12T02:21:08.406Z,13.30
2017-12-12T02:22:08.395Z,7.60
2017-12-12T02:23:08.384Z,2.90
2017-12-12T02:24:08.373Z,11.30
2017-12-12T02:25:08.365Z,11.70
2017-12-12T02:26:08.354Z,6.30
2017-12-12T02:27:08.344Z,3.90
2017-12-12T02:28:08.333Z,1.90
2017-12-12T02:29:08.321Z,5.30
2017-12-12T02:30:08.312Z,13.50
2017-12-12T02:31:08.299Z,14.10
2017-12-12T02:32:08.287Z,14.60
2017-12-12T02:33:08.274Z,15.30
2017-12-12T02:34:08.262Z,14.00
2017-12-12T02:35:08.251Z,10.80
2017-12-12T02:36:08.240Z,13.50
2017-12-12T02:37:08.229Z,12.00
2017-12-12T02:38:08.217Z,10.90
2017-12-12T02:39:08.208Z,12.90
2017-12-12T02:40:08.196Z,12.10
2017-12-12T02:41:08.188Z,11.60
2017-12-12T02:42:08.178Z,14.50
2017-12-12T02:43:08.167Z,13.80
2017-12-12T02:44:08.154Z,7.30
2017-12-12T02:45:08.145Z,8.20
2017-12-12T02:46:08.134Z,5.10
2017-12-12T02:47:08.122Z,7.50
2017-12-12T02:48:08.112Z,6.10
2017-12-12T02:49:08.096Z,9.00
2017-12-12T02:50:08.085Z,11.00
2017-12-12T02:51:08.077Z,1.60
2017-12-12T02:52:08.062Z,3.00
2017-12-12T02:53:08.052Z,11.80
2017-12-12T02:54:08.041Z,10.80
2017-12-12T02:55:08.030Z,11.10
2017-12-12T02:56:08.019Z,3.30
2017-12-12T02:57:08.012Z,3.50
2017-12-12T02:58:08.002Z,2.20
2017-12-12T02:59:07.990Z,10.10
2017-12-12T03:00:07.979Z,4.70
2017-12-12T03:01:07.967Z,0.50
2017-12-12T03:02:07.957Z,9.00
2017-12-12T03:03:07.947Z,1.70
2017-12-12T03:04:07.938Z,0.50
2017-12-12T03:05:07.919Z,8.80
2017-12-12T03:06:07.908Z,10.20
2017-12-12T03:07:07.898Z,8.90
2017-12-12T03:08:07.897Z,8.50
2017-12-12T03:09:07.876Z,0.60
2017-12-12T03:10:07.864Z,0.90
2017-12-12T03:11:07.853Z,5.70
2017-12-12T03:12:07.842Z,10.30
2017-12-12T03:13:07.836Z,11.20
2017-12-12T03:14:07.886Z,11.60
2017-12-12T03:15:07.813Z,10.50
2017-12-12T03:16:07.802Z,10.30
2017-12-12T03:17:07.791Z,11.20
2017-12-12T03:18:07.781Z,11.40
2017-12-12T03:19:07.770Z,10.60
2017-12-12T03:20:07.758Z,10.60
2017-12-12T03:21:07.743Z,10.10
2017-12-12T03:22:07.733Z,9.90
2017-12-12T03:23:07.721Z,6.90
2017-12-12T03:24:07.711Z,3.10
2017-12-12T03:25:07.704Z,7.20
2017-12-12T03:26:07.693Z,9.30
2017-12-12T03:27:07.682Z,9.80
2017-12-12T03:28:07.670Z,10.80
2017-12-12T03:29:07.655Z,10.10
2017-12-12T03:30:07.646Z,9.60
2017-12-12T03:31:07.635Z,4.70
2017-12-12T03:32:07.623Z,1.10
2017-12-12T03:33:07.612Z,3.90
2017-12-12T03:34:07.602Z,0.80
2017-12-12T03:35:07.591Z,5.00
2017-12-12T03:36:07.578Z,10.10
2017-12-12T03:37:07.573Z,10.60
2017-12-12T03:38:07.563Z,4.20
2017-12-12T03:39:07.551Z,3.40
2017-12-12T03:40:07.539Z,12.00
2017-12-12T03:41:07.528Z,12.60
2017-12-12T03:42:07.518Z,11.60
2017-12-12T03:43:07.507Z,1.20
2017-12-12T03:44:07.495Z,0.70
2017-12-12T03:45:07.481Z,0.70
2017-12-12T03:46:07.469Z,4.50
2017-12-12T03:47:07.458Z,11.60
2017-12-12T03:48:07.447Z,8.50
2017-12-12T03:49:07.436Z,11.40
2017-12-12T03:50:07.426Z,11.80
2017-12-12T03:51:07.416Z,12.10
2017-12-12T03:52:07.403Z,5.30
2017-12-12T03:53:07.399Z,10.10
2017-12-12T03:54:07.387Z,10.40
2017-12-12T03:55:07.376Z,10.10
2017-12-12T03:56:07.364Z,12.40
2017-12-12T03:57:07.353Z,12.20
2017-12-12T03:58:07.342Z,12.40
2017-12-12T03:59:07.332Z,12.30
2017-12-12T04:00:07.322Z,11.50
2017-12-12T04:01:07.305Z,11.60
2017-12-12T04:02:07.295Z,14.70
2017-12-12T04:03:07.285Z,11.50
2017-12-12T04:04:07.273Z,12.90
2017-12-12T04:05:07.262Z,12.00
2017-12-12T04:06:07.252Z,12.00
2017-12-12T04:07:07.241Z,10.50
2017-12-12T04:08:07.229Z,6.80
2017-12-12T04:09:07.223Z,7.20
2017-12-12T04:10:07.212Z,4.90
2017-12-12T04:11:07.201Z,9.60
2017-12-12T04:12:07.190Z,8.10
2017-12-12T04:13:07.179Z,8.50
2017-12-12T04:14:07.170Z,8.00
2017-12-12T04:15:07.158Z,11.00
2017-12-12T04:16:07.146Z,10.40
2017-12-12T04:17:07.139Z,10.10
2017-12-12T04:18:07.121Z,11.10
2017-12-12T04:19:07.110Z,10.20
2017-12-12T04:20:07.098Z,10.60
2017-12-12T04:21:07.088Z,8.80
2017-12-12T04:22:07.078Z,10.20
2017-12-12T04:23:07.066Z,10.40
2017-12-12T04:24:07.055Z,13.90
2017-12-12T04:25:07.048Z,12.70
2017-12-12T04:26:07.038Z,10.10
2017-12-12T04:27:07.028Z,12.50
2017-12-12T04:28:07.014Z,7.40
2017-12-12T04:29:07.003Z,8.90
2017-12-12T04:30:06.991Z,12.00
2017-12-12T04:31:06.980Z,12.40
2017-12-12T04:32:06.968Z,15.20
2017-12-12T04:33:06.968Z,16.50
2017-12-12T04:34:06.951Z,5.90
2017-12-12T04:35:06.942Z,4.00
2017-12-12T04:36:06.928Z,8.90
2017-12-12T04:37:06.919Z,9.20
2017-12-12T04:38:06.907Z,7.60
2017-12-12T04:39:06.896Z,11.60
2017-12-12T04:40:06.887Z,1.80
2017-12-12T04:41:06.870Z,9.50
2017-12-12T04:42:06.864Z,14.80
2017-12-12T04:43:06.849Z,14.30
2017-12-12T04:44:06.836Z,13.50
2017-12-12T04:45:06.827Z,16.20
2017-12-12T04:46:06.815Z,13.90
2017-12-12T04:47:06.804Z,10.00
2017-12-12T04:48:06.793Z,0.80
2017-12-12T04:49:06.787Z,10.50
2017-12-12T04:50:06.775Z,0.80
2017-12-12T04:51:06.768Z,2.20
2017-12-12T04:52:06.753Z,4.00
2017-12-12T04:53:06.741Z,14.90
2017-12-12T04:54:06.730Z,2.90
2017-12-12T04:55:06.719Z,8.80
2017-12-12T04:56:06.708Z,12.00
2017-12-12T04:57:06.693Z,12.50
2017-12-12T04:58:06.681Z,15.00
2017-12-12T04:59:06.671Z,14.30
2017-12-12T05:00:06.660Z,17.50
2017-12-12T05:01:06.651Z,14.10
2017-12-12T05:02:06.638Z,15.70
2017-12-12T05:03:06.626Z,14.30
2017-12-12T05:04:06.614Z,12.10
2017-12-12T05:05:06.608Z,6.10
2017-12-12T05:06:06.597Z,11.30
2017-12-12T05:07:06.588Z,7.20
2017-12-12T05:08:06.574Z,18.70
2017-12-12T05:09:06.563Z,7.20
2017-12-12T05:10:06.552Z,16.80
2017-12-12T05:11:06.540Z,12.30
2017-12-12T05:12:06.536Z,11.70
2017-12-12T05:13:06.514Z,10.80
2017-12-12T05:14:06.503Z,13.10
2017-12-12T05:15:06.492Z,8.60
2017-12-12T05:16:06.479Z,10.60
2017-12-12T05:17:06.469Z,10.20
2017-12-12T05:18:06.458Z,1.90
2017-12-12T05:19:06.446Z,13.50
2017-12-12T05:20:06.435Z,8.80
2017-12-12T05:21:06.427Z,4.10
2017-12-12T05:22:06.416Z,4.50
2017-12-12T05:23:06.405Z,5.50
2017-12-12T05:24:06.396Z,9.20
2017-12-12T05:25:06.383Z,7.00
2017-12-12T05:26:06.370Z,8.00
2017-12-12T05:27:06.360Z,4.90
2017-12-12T05:28:06.348Z,8.20
2017-12-12T05:29:06.333Z,8.60
2017-12-12T05:30:06.321Z,12.70
2017-12-12T05:31:06.310Z,12.10
2017-12-12T05:32:06.298Z,15.00
2017-12-12T05:33:06.294Z,16.40
2017-12-12T05:34:06.280Z,14.10
2017-12-12T05:35:06.269Z,16.30
2017-12-12T05:36:06.256Z,14.10
2017-12-12T05:37:06.242Z,8.30
2017-12-12T05:38:06.232Z,8.40
2017-12-12T05:39:06.224Z,4.40
2017-12-12T05:40:06.208Z,11.50
2017-12-12T05:41:06.198Z,13.00
2017-12-12T05:42:06.187Z,18.40
2017-12-12T05:43:06.175Z,13.80
2017-12-12T05:44:06.162Z,5.20
2017-12-12T05:45:06.157Z,1.00
2017-12-12T05:46:06.145Z,0.70
2017-12-12T05:47:06.135Z,0.90
2017-12-12T05:48:06.121Z,12.80
2017-12-12T05:49:06.111Z,9.30
2017-12-12T05:50:06.100Z,6.10
2017-12-12T05:51:06.088Z,0.60
2017-12-12T05:52:06.077Z,0.50
2017-12-12T05:53:06.060Z,0.50
2017-12-12T05:54:06.049Z,0.50
2017-12-12T05:55:06.039Z,0.50
2017-12-12T05:56:06.026Z,15.70
2017-12-12T05:57:06.015Z,12.40
2017-12-12T05:58:06.004Z,13.70
2017-12-12T05:59:05.993Z,13.90
2017-12-12T06:00:05.980Z,7.00
2017-12-12T06:01:05.973Z,11.90
2017-12-12T06:02:05.964Z,14.50
2017-12-12T06:03:05.953Z,18.00
2017-12-12T06:04:05.940Z,16.10
2017-12-12T06:05:05.928Z,14.40
2017-12-12T06:06:05.917Z,14.70
2017-12-12T06:07:05.906Z,13.10
2017-12-12T06:08:05.894Z,14.40
2017-12-12T06:09:05.878Z,14.10
2017-12-12T06:10:05.869Z,12.10
2017-12-12T06:11:05.856Z,1.40
2017-12-12T06:12:05.851Z,4.30
2017-12-12T06:13:05.833Z,7.30
2017-12-12T06:14:05.823Z,14.50
2017-12-12T06:15:05.811Z,12.70
2017-12-12T06:16:05.798Z,16.30
2017-12-12T06:17:05.792Z,15.30
2017-12-12T06:18:05.781Z,15.10
2017-12-12T06:19:05.770Z,15.60
2017-12-12T06:20:05.759Z,13.20
2017-12-12T06:21:05.747Z,14.70
2017-12-12T06:22:05.736Z,16.40
2017-12-12T06:23:05.724Z,14.40
2017-12-12T06:24:05.712Z,13.90
2017-12-12T06:25:05.697Z,16.20
2017-12-12T06:26:05.686Z,16.50
2017-12-12T06:27:05.675Z,18.70
2017-12-12T06:28:05.666Z,14.70
2017-12-12T06:29:05.652Z,18.20
2017-12-12T06:30:05.641Z,14.60
2017-12-12T06:31:05.630Z,14.00
2017-12-12T06:32:05.618Z,13.50
2017-12-12T06:33:05.611Z,16.90
2017-12-12T06:34:05.601Z,17.20
2017-12-12T06:35:05.589Z,14.00
2017-12-12T06:36:05.578Z,16.40
2017-12-12T06:37:05.566Z,16.60
2017-12-12T06:38:05.555Z,14.40
2017-12-12T06:39:05.544Z,15.20
2017-12-12T06:40:05.532Z,17.30
2017-12-12T06:41:05.517Z,17.10
2017-12-12T06:42:05.506Z,14.80
2017-12-12T06:43:05.495Z,16.60
2017-12-12T06:44:05.483Z,16.30
2017-12-12T06:45:05.472Z,14.40
2017-12-12T06:46:05.461Z,15.80
2017-12-12T06:47:05.451Z,12.30
2017-12-12T06:48:05.439Z,13.40
2017-12-12T06:49:05.434Z,12.20
2017-12-12T06:50:05.424Z,9.80
2017-12-12T06:51:05.410Z,6.60
2017-12-12T06:52:05.402Z,15.40
2017-12-12T06:53:05.387Z,14.00
2017-12-12T06:54:05.377Z,15.30
2017-12-12T06:55:05.366Z,14.80
2017-12-12T06:56:05.357Z,13.70
2017-12-12T06:57:05.339Z,16.80
2017-12-12T06:58:05.329Z,13.60
2017-12-12T06:59:05.321Z,12.80
2017-12-12T07:00:05.307Z,12.80
2017-12-12T07:01:05.295Z,15.70
2017-12-12T07:02:05.284Z,14.10
2017-12-12T07:03:05.273Z,15.40
2017-12-12T07:04:05.262Z,13.60
2017-12-12T07:05:05.255Z,16.60
2017-12-12T07:06:05.244Z,19.40
2017-12-12T07:07:05.234Z,16.10
2017-12-12T07:08:05.226Z,15.10
2017-12-12T07:09:05.211Z,16.40
2017-12-12T07:10:05.201Z,18.70
2017-12-12T07:11:05.191Z,16.60
2017-12-12T07:12:05.185Z,15.80
2017-12-12T07:13:05.163Z,15.70
2017-12-12T07:14:05.152Z,16.60
2017-12-12T07:15:05.143Z,17.70
2017-12-12T07:16:05.130Z,14.50
2017-12-12T07:17:05.119Z,17.30
2017-12-12T07:18:05.109Z,15.10
2017-12-12T07:19:05.099Z,16.30
2017-12-12T07:20:05.085Z,17.30
2017-12-12T07:21:05.080Z,15.80
2017-12-12T07:22:05.069Z,12.60
2017-12-12T07:23:05.059Z,14.10
2017-12-12T07:24:05.047Z,10.40
2017-12-12T07:25:05.040Z,4.90
2017-12-12T07:26:05.025Z,7.20
2017-12-12T07:27:05.014Z,14.10
2017-12-12T07:28:05.003Z,13.80
2017-12-12T07:29:04.988Z,16.80
2017-12-12T07:30:04.979Z,13.90
2017-12-12T07:31:04.966Z,15.20
2017-12-12T07:32:04.954Z,15.10
2017-12-12T07:33:04.943Z,17.70
2017-12-12T07:34:04.934Z,15.50
2017-12-12T07:35:04.923Z,13.90
2017-12-12T07:36:04.910Z,16.30
2017-12-12T07:37:04.904Z,14.30
2017-12-12T07:38:04.893Z,16.20
2017-12-12T07:39:04.905Z,14.40
2017-12-12T07:40:04.874Z,15.50
2017-12-12T07:41:04.859Z,15.40
2017-12-12T07:42:04.870Z,14.80
2017-12-12T07:43:04.878Z,15.40
2017-12-12T07:44:04.875Z,15.70
2017-12-12T07:45:04.817Z,15.30
2017-12-12T07:46:04.807Z,14.40
2017-12-12T07:47:04.796Z,13.40
2017-12-12T07:48:04.785Z,13.70
2017-12-12T07:49:04.774Z,14.10
2017-12-12T07:50:04.764Z,10.20
2017-12-12T07:51:04.754Z,13.30
2017-12-12T07:52:05.324Z,15.40
2017-12-12T07:53:04.726Z,9.50
2017-12-12T07:54:04.716Z,13.50
2017-12-12T07:55:04.706Z,11.70
2017-12-12T07:56:04.695Z,13.00
2017-12-12T07:57:04.684Z,13.80
2017-12-12T07:58:04.673Z,13.00
2017-12-12T07:59:04.663Z,12.30
2017-12-12T08:00:04.651Z,13.70
2017-12-12T08:01:04.645Z,13.60
2017-12-12T08:02:04.635Z,11.90
2017-12-12T08:03:04.624Z,12.80
2017-12-12T08:04:04.613Z,9.90
2017-12-12T08:05:04.603Z,12.70
2017-12-12T08:06:04.592Z,12.90
2017-12-12T08:07:04.581Z,12.50
2017-12-12T08:08:04.571Z,12.30
2017-12-12T08:09:04.555Z,13.00
2017-12-12T08:10:04.547Z,13.00
2017-12-12T08:11:04.537Z,12.50
2017-12-12T08:12:04.523Z,12.20
2017-12-12T08:13:04.513Z,12.70
2017-12-12T08:14:04.503Z,12.50
2017-12-12T08:15:04.492Z,12.50
2017-12-12T08:16:04.491Z,12.10
2017-12-12T08:17:04.475Z,12.70
2017-12-12T08:18:04.465Z,11.10
2017-12-12T08:19:04.454Z,12.10
2017-12-12T08:20:04.452Z,12.50
2017-12-12T08:21:04.433Z,12.20
2017-12-12T08:22:04.424Z,11.90
2017-12-12T08:23:04.413Z,11.70
2017-12-12T08:24:04.401Z,11.70
2017-12-12T08:25:04.387Z,9.10
2017-12-12T08:26:04.389Z,11.20
2017-12-12T08:27:04.367Z,11.90
2017-12-12T08:28:04.355Z,12.30
2017-12-12T08:29:04.346Z,12.30
2017-12-12T08:30:04.336Z,11.40
2017-12-12T08:31:04.326Z,11.70
2017-12-12T08:32:04.315Z,11.00
2017-12-12T08:33:04.309Z,11.40
2017-12-12T08:34:04.299Z,11.70
2017-12-12T08:35:04.289Z,11.40
2017-12-12T08:36:04.279Z,12.50
2017-12-12T08:37:04.268Z,13.20
2017-12-12T08:38:04.258Z,12.90
2017-12-12T08:39:04.250Z,11.60
2017-12-12T08:40:04.240Z,10.80
2017-12-12T08:41:04.223Z,6.10
2017-12-12T08:42:04.214Z,6.60
2017-12-12T08:43:04.204Z,4.40
2017-12-12T08:44:04.194Z,6.30
2017-12-12T08:45:04.187Z,7.00
2017-12-12T08:46:04.177Z,7.30
2017-12-12T08:47:04.166Z,10.50
2017-12-12T08:48:04.173Z,8.50
2017-12-12T08:49:04.142Z,11.40
2017-12-12T08:50:04.129Z,13.00
2017-12-12T08:51:04.119Z,4.40
2017-12-12T08:52:04.113Z,8.60
2017-12-12T08:53:04.097Z,8.30
2017-12-12T08:54:04.090Z,8.50
2017-12-12T08:55:04.079Z,5.60
2017-12-12T08:56:04.066Z,5.80
2017-12-12T08:57:04.060Z,9.60
2017-12-12T08:58:04.049Z,11.40
2017-12-12T08:59:04.039Z,10.20
2017-12-12T09:00:04.029Z,10.60
2017-12-12T09:01:04.018Z,11.10
2017-12-12T09:02:04.016Z,10.10
2017-12-12T09:03:03.999Z,7.70
2017-12-12T09:04:03.986Z,3.90
2017-12-12T09:05:03.973Z,4.60
2017-12-12T09:06:03.963Z,4.90
2017-12-12T09:07:03.952Z,10.80
2017-12-12T09:08:03.942Z,6.80
2017-12-12T09:09:03.932Z,8.50
2017-12-12T09:10:03.922Z,11.10
2017-12-12T09:11:03.914Z,14.80
2017-12-12T09:12:03.900Z,15.70
2017-12-12T09:13:03.900Z,11.90
2017-12-12T09:14:03.886Z,11.50
2017-12-12T09:15:03.875Z,11.50
2017-12-12T09:16:03.864Z,6.10
2017-12-12T09:17:03.854Z,9.70
2017-12-12T09:18:03.846Z,10.80
2017-12-12T09:19:03.836Z,8.60
2017-12-12T09:20:03.824Z,9.20
2017-12-12T09:21:03.810Z,9.80
2017-12-12T09:22:03.801Z,9.70
2017-12-12T09:23:03.793Z,12.20
2017-12-12T09:24:03.780Z,10.50
2017-12-12T09:25:03.769Z,11.10
2017-12-12T09:26:03.787Z,13.60
2017-12-12T09:27:03.750Z,10.20
2017-12-12T09:28:03.740Z,10.10
2017-12-12T09:29:03.735Z,9.50
2017-12-12T09:30:03.725Z,11.50
2017-12-12T09:31:03.715Z,7.70
2017-12-12T09:32:03.704Z,12.20
2017-12-12T09:33:03.695Z,4.70
2017-12-12T09:34:03.686Z,9.10
2017-12-12T09:35:03.675Z,12.90
2017-12-12T09:36:03.665Z,10.70
2017-12-12T09:37:03.652Z,11.40
2017-12-12T09:38:03.643Z,9.80
2017-12-12T09:39:03.632Z,7.10
2017-12-12T09:40:03.621Z,7.70
2017-12-12T09:41:03.611Z,6.00
2017-12-12T09:42:03.602Z,5.80
2017-12-12T09:43:03.592Z,9.70
2017-12-12T09:44:03.582Z,9.60
2017-12-12T09:45:03.584Z,10.40
2017-12-12T09:46:03.566Z,7.10
2017-12-12T09:47:03.559Z,5.30
2017-12-12T09:48:03.546Z,5.00
2017-12-12T09:49:03.532Z,11.00
2017-12-12T09:50:03.522Z,5.60
2017-12-12T09:51:03.513Z,7.90
2017-12-12T09:52:03.502Z,8.50
2017-12-12T09:53:03.497Z,5.50
2017-12-12T09:54:03.487Z,6.30
2017-12-12T09:55:03.477Z,7.60
2017-12-12T09:56:03.467Z,4.40
2017-12-12T09:57:03.462Z,8.00
2017-12-12T09:58:03.447Z,7.30
2017-12-12T09:59:03.438Z,7.60
2017-12-12T10:00:03.427Z,10.30
2017-12-12T10:01:03.416Z,10.60
2017-12-12T10:02:03.414Z,10.50
2017-12-12T10:03:03.407Z,11.10
2017-12-12T10:04:03.381Z,9.30
2017-12-12T10:05:03.371Z,8.40
2017-12-12T10:06:03.362Z,11.90
2017-12-12T10:07:03.354Z,1.70
2017-12-12T10:08:03.344Z,1.10
2017-12-12T10:09:03.336Z,11.30
2017-12-12T10:10:03.327Z,11.10
2017-12-12T10:11:03.317Z,15.60
2017-12-12T10:12:03.306Z,9.40
2017-12-12T10:13:03.297Z,8.10
2017-12-12T10:14:03.286Z,6.50
2017-12-12T10:15:03.277Z,8.10
2017-12-12T10:16:03.267Z,10.50
2017-12-12T10:17:03.255Z,8.90
2017-12-12T10:18:03.242Z,11.60
2017-12-12T10:19:03.234Z,15.00
2017-12-12T10:20:03.222Z,18.90
2017-12-12T10:21:03.212Z,13.70
2017-12-12T10:22:03.203Z,11.60
2017-12-12T10:23:03.194Z,17.50
2017-12-12T10:24:03.184Z,13.70
2017-12-12T10:25:03.179Z,16.90
2017-12-12T10:26:03.169Z,15.70
2017-12-12T10:27:03.159Z,12.60
2017-12-12T10:28:03.177Z,14.40
2017-12-12T10:29:03.141Z,17.00
2017-12-12T10:30:03.130Z,17.00
2017-12-12T10:31:03.119Z,16.10
2017-12-12T10:32:03.110Z,16.00
2017-12-12T10:33:03.097Z,7.60
2017-12-12T10:34:03.087Z,7.30
2017-12-12T10:35:03.080Z,14.30
2017-12-12T10:36:03.067Z,14.90
2017-12-12T10:37:03.058Z,10.60
2017-12-12T10:38:03.048Z,12.60
2017-12-12T10:39:03.040Z,15.60
2017-12-12T10:40:03.031Z,9.90
2017-12-12T10:41:03.049Z,12.20
2017-12-12T10:42:03.014Z,10.20
2017-12-12T10:43:03.005Z,11.40
2017-12-12T10:44:02.996Z,9.90
2017-12-12T10:45:02.985Z,12.00
2017-12-12T10:46:02.975Z,15.40
2017-12-12T10:47:02.966Z,14.40
2017-12-12T10:48:02.958Z,12.20
2017-12-12T10:49:02.943Z,12.50
2017-12-12T10:50:02.934Z,11.80
2017-12-12T10:51:02.925Z,14.00
2017-12-12T10:52:02.913Z,13.20
2017-12-12T10:53:02.909Z,15.90
2017-12-12T10:54:02.898Z,17.70
2017-12-12T10:55:02.889Z,12.40
2017-12-12T10:56:02.878Z,13.40
2017-12-12T10:57:02.864Z,16.40
2017-12-12T10:58:02.855Z,14.40
2017-12-12T10:59:02.847Z,12.50
2017-12-12T11:00:02.836Z,11.60
2017-12-12T11:01:02.827Z,15.10
2017-12-12T11:02:02.820Z,12.60
2017-12-12T11:03:02.807Z,8.60
2017-12-12T11:04:02.798Z,8.10
2017-12-12T11:05:02.792Z,10.00
2017-12-12T11:06:02.782Z,11.60
2017-12-12T11:07:02.772Z,9.40
2017-12-12T11:08:02.761Z,8.50
2017-12-12T11:09:02.752Z,7.50
2017-12-12T11:10:02.743Z,15.70
2017-12-12T11:11:02.733Z,11.60
2017-12-12T11:12:02.723Z,10.60
2017-12-12T11:13:02.716Z,6.40
2017-12-12T11:14:02.700Z,8.40
2017-12-12T11:15:02.691Z,4.40
2017-12-12T11:16:02.680Z,7.40
2017-12-12T11:17:02.670Z,8.90
2017-12-12T11:18:02.661Z,11.70
2017-12-12T11:19:02.651Z,8.60
2017-12-12T11:20:02.641Z,7.30
2017-12-12T11:21:02.635Z,10.80
2017-12-12T11:22:02.628Z,12.20
2017-12-12T11:23:02.617Z,12.30
2017-12-12T11:24:02.607Z,12.10
2017-12-12T11:25:02.600Z,9.70
2017-12-12T11:26:02.589Z,10.40
2017-12-12T11:27:02.580Z,10.50
2017-12-12T11:28:02.569Z,5.40
2017-12-12T11:29:02.556Z,10.40
2017-12-12T11:30:02.547Z,11.60
2017-12-12T11:31:02.538Z,7.70
2017-12-12T11:32:02.529Z,11.10
2017-12-12T11:33:02.519Z,11.30
2017-12-12T11:34:02.511Z,10.40
2017-12-12T11:35:02.504Z,10.50
2017-12-12T11:36:02.491Z,12.30
2017-12-12T11:37:02.488Z,11.50
2017-12-12T11:38:02.478Z,11.60
2017-12-12T11:39:02.469Z,11.50
2017-12-12T11:40:02.458Z,13.60
2017-12-12T11:41:02.450Z,11.40
2017-12-12T11:42:02.441Z,12.40
2017-12-12T11:43:02.432Z,7.20
2017-12-12T11:44:02.422Z,8.80
2017-12-12T11:45:02.410Z,7.90
2017-12-12T11:46:02.403Z,7.20
2017-12-12T11:47:02.390Z,8.40
2017-12-12T11:48:02.381Z,6.80
2017-12-12T11:49:02.371Z,8.50
2017-12-12T11:50:02.363Z,10.00
2017-12-12T11:51:02.353Z,1.40
2017-12-12T11:52:02.343Z,2.20
2017-12-12T11:53:02.339Z,8.70
2017-12-12T11:54:02.334Z,10.30
2017-12-12T11:55:02.320Z,11.20
2017-12-12T11:56:02.310Z,9.60
2017-12-12T11:57:02.297Z,9.70
2017-12-12T11:58:02.288Z,7.50
2017-12-12T11:59:02.280Z,8.40
2017-12-12T12:00:02.270Z,6.50
2017-12-12T12:01:02.264Z,6.10
2017-12-12T12:02:02.264Z,7.30
2017-12-12T12:03:02.246Z,9.90
2017-12-12T12:04:02.239Z,8.00
2017-12-12T12:05:02.227Z,8.00
2017-12-12T12:06:02.217Z,11.70
2017-12-12T12:07:02.209Z,8.70
2017-12-12T12:08:02.199Z,9.50
2017-12-12T12:09:02.186Z,6.30
2017-12-12T12:10:02.177Z,6.40
2017-12-12T12:11:02.169Z,6.90
2017-12-12T12:12:02.159Z,6.60
2017-12-12T12:13:02.153Z,10.00
2017-12-12T12:14:02.142Z,12.40
2017-12-12T12:15:02.131Z,12.00
2017-12-12T12:16:02.122Z,13.10
2017-12-12T12:17:02.118Z,12.30
2017-12-12T12:18:02.153Z,12.10
2017-12-12T12:19:02.099Z,9.60
2017-12-12T12:20:02.088Z,9.00
2017-12-12T12:21:02.081Z,10.60
2017-12-12T12:22:02.072Z,9.10
2017-12-12T12:23:02.062Z,9.50
2017-12-12T12:24:02.052Z,7.20
2017-12-12T12:25:02.044Z,7.10
2017-12-12T12:26:02.032Z,2.80
2017-12-12T12:27:02.022Z,0.90
2017-12-12T12:28:02.013Z,1.20
2017-12-12T12:29:02.004Z,0.70
2017-12-12T12:30:01.998Z,0.70
2017-12-12T12:31:01.986Z,0.50
2017-12-12T12:32:01.977Z,2.60
2017-12-12T12:33:01.973Z,1.10
2017-12-12T12:34:01.964Z,0.40
2017-12-12T12:35:01.955Z,6.70
2017-12-12T12:36:01.945Z,1.70
2017-12-12T12:37:01.935Z,6.30
2017-12-12T12:38:01.927Z,3.90
2017-12-12T12:39:01.919Z,4.60
2017-12-12T12:40:01.909Z,2.80
2017-12-12T12:41:01.895Z,4.70
2017-12-12T12:42:01.887Z,5.30
2017-12-12T12:43:01.880Z,7.30
2017-12-12T12:44:01.868Z,2.70
2017-12-12T12:45:01.868Z,3.60
2017-12-12T12:46:01.905Z,3.40
2017-12-12T12:47:01.843Z,4.60
2017-12-12T12:48:01.834Z,8.90
2017-12-12T12:49:01.830Z,8.50
2017-12-12T12:50:01.820Z,8.30
2017-12-12T12:51:01.812Z,8.20
2017-12-12T12:52:01.802Z,7.90
2017-12-12T12:53:01.795Z,5.10
2017-12-12T12:54:01.786Z,5.90
2017-12-12T12:55:01.778Z,5.80
2017-12-12T12:56:01.771Z,5.30
2017-12-12T12:57:01.756Z,3.20
2017-12-12T12:58:01.747Z,4.20
2017-12-12T12:59:01.743Z,3.70
2017-12-12T13:00:01.732Z,6.70
2017-12-12T13:01:01.725Z,4.00
2017-12-12T13:02:01.718Z,4.00